Arm, Mississippi
Current Conditions -  °F | °C
As of 1:55 AM on Wednesday 26 Nov 2014 (Local Time) from K1R7 Reporting Station
Clear Clear  
Wind Chill:   Ceiling: Unl
Heat Index:   Visibility: 10mi
Dew Point:   Wind: 0mph
Humidity: 100%   Direction: NA
Pressure: 30.2"   Gusts: NA
Location:  31.5868°N, 90.03°W
Report Text: K1R7 260755Z AUTO 00000KT 10SM CLR 00/00 A3020 RMK AO2
Loading
Personal Weather Stations






























Interactive Weather Map New forecast layout! Learn more

10-Day Weather Forecast

Advertisements
Track Severe Weather on mobile